Time;durP1;ratioP1;P1;durP2;ratioP2;P2;SDS_P1;SDS_P2;PMS_P1;PMS_P2;Temp;Humidity;BMP_temperature;BMP_pressure;BME280_temperature;BME280_humidity;BME280_pressure;Samples;Min_cycle;Max_cycle;Signal;HPM_P1;HPM_P2
2022/03/18 00:02:21;;;;;;;4.53;1.50;;;17.80;57.20;;;;;;5023108;28;20032;-59
2022/03/18 00:04:47;;;;;;;4.38;1.80;;;17.80;57.40;;;;;;5028494;28;20029;-59
2022/03/18 00:07:14;;;;;;;4.50;1.58;;;17.80;58.70;;;;;;5022382;28;20037;-59
2022/03/18 00:09:41;;;;;;;4.85;1.65;;;17.80;57.50;;;;;;5029018;28;20109;-59
2022/03/18 00:12:10;;;;;;;3.85;1.60;;;17.80;57.50;;;;;;5024249;28;20070;-58
2022/03/18 00:14:39;;;;;;;5.82;1.73;;;17.80;57.60;;;;;;5021957;28;20079;-59
2022/03/18 00:17:04;;;;;;;2.97;1.60;;;17.80;57.50;;;;;;5021833;28;20029;-58
2022/03/18 00:19:31;;;;;;;4.28;1.90;;;17.80;57.60;;;;;;5027064;28;20112;-59
2022/03/18 00:22:01;;;;;;;3.13;1.60;;;17.70;57.70;;;;;;5025198;28;20033;-59
2022/03/18 00:24:27;;;;;;;5.38;1.70;;;17.70;57.60;;;;;;5020799;28;20034;-59
2022/03/18 00:26:53;;;;;;;3.42;1.75;;;17.80;57.60;;;;;;5024241;28;20068;-59
2022/03/18 00:29:18;;;;;;;4.10;1.70;;;17.70;57.50;;;;;;5025874;28;20057;-58
2022/03/18 00:31:44;;;;;;;5.90;2.08;;;17.70;57.60;;;;;;5024336;28;20037;-59
2022/03/18 00:34:10;;;;;;;2.40;1.50;;;17.70;57.50;;;;;;5027655;28;20030;-59
2022/03/18 00:36:37;;;;;;;5.30;1.60;;;17.70;57.40;;;;;;5027212;28;20115;-59
2022/03/18 00:39:03;;;;;;;3.92;1.55;;;17.70;57.40;;;;;;5025182;28;20045;-59
2022/03/18 00:41:29;;;;;;;4.95;1.90;;;17.70;57.70;;;;;;5021345;28;20076;-58
2022/03/18 00:43:54;;;;;;;3.50;1.58;;;17.60;57.50;;;;;;5026518;28;20033;-58
2022/03/18 00:46:22;;;;;;;4.95;1.73;;;17.60;57.50;;;;;;5026872;28;20060;-59
2022/03/18 00:54:17;;;;;;;3.97;1.70;;;17.60;57.50;;;;;;5027950;28;20052;-59
2022/03/18 00:56:42;;;;;;;3.88;1.52;;;17.60;57.60;;;;;;5024986;28;20033;-59
2022/03/18 00:59:09;;;;;;;4.47;1.80;;;17.60;57.80;;;;;;5026142;28;20437;-59
2022/03/18 01:01:35;;;;;;;3.53;1.60;;;17.60;57.50;;;;;;5034933;28;20126;-59
2022/03/18 01:04:01;;;;;;;4.35;1.67;;;17.50;57.60;;;;;;5027769;28;20029;-59
2022/03/18 01:06:27;;;;;;;3.83;1.65;;;17.50;57.50;;;;;;5029821;28;20057;-58
2022/03/18 01:08:53;;;;;;;3.55;1.40;;;17.50;57.60;;;;;;5028899;28;20098;-59
2022/03/18 01:11:19;;;;;;;3.70;1.58;;;17.50;57.60;;;;;;5026844;28;20450;-59
2022/03/18 01:13:44;;;;;;;4.05;1.65;;;17.50;57.60;;;;;;5026682;28;20044;-59
2022/03/18 01:16:10;;;;;;;3.35;1.60;;;17.50;57.60;;;;;;5026618;28;20028;-59
2022/03/18 01:18:35;;;;;;;3.55;1.55;;;17.50;57.50;;;;;;5034542;28;20029;-58
2022/03/18 01:21:01;;;;;;;4.65;1.63;;;17.50;57.60;;;;;;5027561;28;20830;-59
2022/03/18 01:23:27;;;;;;;4.13;1.63;;;17.50;57.60;;;;;;5031293;28;20520;-59
2022/03/18 01:25:54;;;;;;;5.45;1.73;;;17.50;57.60;;;;;;5027397;28;20032;-58
2022/03/18 01:28:19;;;;;;;3.28;1.42;;;17.50;57.60;;;;;;5032335;28;20525;-59
2022/03/18 01:30:45;;;;;;;4.07;1.73;;;17.40;57.60;;;;;;5031540;28;20033;-59
2022/03/18 01:33:11;;;;;;;4.72;1.80;;;17.40;57.50;;;;;;5028680;28;20413;-59
2022/03/18 01:35:37;;;;;;;3.15;1.50;;;17.40;57.60;;;;;;5020305;28;20116;-59
2022/03/18 01:38:03;;;;;;;4.85;1.88;;;17.40;57.60;;;;;;5024855;28;20892;-59
2022/03/18 01:40:28;;;;;;;4.10;1.50;;;17.40;57.60;;;;;;5021842;28;20128;-59
2022/03/18 01:42:55;;;;;;;3.83;1.80;;;17.40;57.70;;;;;;5026590;28;20064;-59
2022/03/18 01:45:21;;;;;;;3.08;1.58;;;17.40;57.80;;;;;;5029916;28;20033;-59
2022/03/18 01:47:47;;;;;;;2.58;1.52;;;17.40;57.60;;;;;;5027071;28;20457;-59
2022/03/18 01:50:13;;;;;;;3.42;1.67;;;17.40;57.70;;;;;;5022310;28;20033;-59
2022/03/18 01:52:39;;;;;;;3.90;1.60;;;17.30;57.70;;;;;;5025515;28;20033;-58
2022/03/18 01:55:06;;;;;;;3.65;1.58;;;17.30;57.70;;;;;;5025168;28;20026;-59
2022/03/18 01:57:31;;;;;;;3.60;1.65;;;17.30;57.80;;;;;;5026428;28;20025;-60
2022/03/18 01:59:57;;;;;;;3.10;1.42;;;17.30;57.70;;;;;;5026642;28;20035;-59
2022/03/18 02:02:23;;;;;;;3.90;1.52;;;17.30;57.80;;;;;;5026988;28;20037;-59
2022/03/18 02:04:49;;;;;;;3.33;1.35;;;17.30;57.70;;;;;;5063011;28;20030;-58
2022/03/18 02:07:15;;;;;;;2.72;1.42;;;17.30;57.60;;;;;;5036288;28;20594;-58
2022/03/18 02:09:41;;;;;;;4.85;1.70;;;17.20;57.60;;;;;;5036076;28;20104;-59
2022/03/18 02:12:07;;;;;;;2.65;1.50;;;17.30;57.60;;;;;;5037804;28;20109;-59
2022/03/18 02:14:43;;;;;;;3.30;1.67;;;17.20;57.50;;;;;;5035130;28;20433;-59
2022/03/18 02:17:12;;;;;;;3.83;1.70;;;17.30;57.60;;;;;;5025117;28;20018;-59
2022/03/18 02:19:38;;;;;;;3.45;1.48;;;17.20;57.50;;;;;;5033546;28;20037;-59
2022/03/18 02:22:09;;;;;;;3.92;1.40;;;17.20;57.60;;;;;;5063574;28;20022;-58
2022/03/18 02:24:35;;;;;;;5.07;1.55;;;17.20;57.50;;;;;;5035653;28;20021;-58
2022/03/18 02:27:01;;;;;;;4.13;1.80;;;17.20;57.70;;;;;;5036262;28;20036;-59
2022/03/18 02:29:26;;;;;;;4.85;1.60;;;17.20;57.60;;;;;;5031282;28;20483;-59
2022/03/18 02:31:52;;;;;;;2.88;1.40;;;17.20;57.90;;;;;;5034712;28;20553;-59
2022/03/18 02:34:18;;;;;;;4.55;1.38;;;17.20;57.70;;;;;;5029489;28;20509;-58
2022/03/18 02:36:43;;;;;;;3.03;1.60;;;17.10;57.50;;;;;;5031598;28;20041;-58
2022/03/18 02:39:09;;;;;;;3.83;1.52;;;17.20;57.60;;;;;;5029058;28;20017;-59
2022/03/18 02:41:35;;;;;;;3.70;1.55;;;17.10;57.50;;;;;;5032401;28;20056;-59
2022/03/18 02:44:01;;;;;;;3.95;1.58;;;17.10;57.50;;;;;;5033659;28;20493;-59
2022/03/18 02:46:26;;;;;;;3.10;1.40;;;17.10;57.60;;;;;;5036424;28;20104;-59
2022/03/18 02:48:52;;;;;;;3.15;1.40;;;17.10;57.50;;;;;;5034896;28;20409;-59
2022/03/18 02:51:18;;;;;;;3.08;1.45;;;17.10;57.60;;;;;;5029618;28;20686;-59
2022/03/18 02:53:43;;;;;;;3.53;1.58;;;17.10;57.70;;;;;;5024342;28;20478;-59
2022/03/18 02:56:09;;;;;;;3.05;1.50;;;17.10;57.60;;;;;;5035687;28;20025;-59
2022/03/18 02:58:35;;;;;;;2.53;1.30;;;17.10;57.60;;;;;;5026311;28;20481;-59
2022/03/18 03:01:02;;;;;;;2.55;1.40;;;17.00;57.60;;;;;;5067089;28;20033;-59
2022/03/18 03:03:28;;;;;;;3.00;1.20;;;17.00;57.60;;;;;;5035376;28;20033;-59
2022/03/18 03:08:38;;;;;;;3.03;1.40;;;17.00;57.70;;;;;;5028383;28;20064;-59
2022/03/18 03:11:03;;;;;;;5.55;1.50;;;17.00;57.70;;;;;;5034142;28;20546;-58
2022/03/18 03:13:29;;;;;;;4.03;1.60;;;17.00;57.70;;;;;;5035547;28;20029;-58
2022/03/18 03:15:54;;;;;;;4.15;1.55;;;17.00;57.70;;;;;;5032354;28;20037;-59
2022/03/18 03:18:20;;;;;;;4.30;1.30;;;17.00;57.70;;;;;;5035920;28;20029;-59
2022/03/18 03:20:46;;;;;;;3.55;1.33;;;17.00;57.80;;;;;;5025987;28;20037;-59
2022/03/18 03:23:11;;;;;;;2.63;1.30;;;17.00;57.70;;;;;;5034371;28;20029;-59
2022/03/18 03:25:37;;;;;;;3.17;1.23;;;17.00;57.80;;;;;;5036743;28;20040;-58
2022/03/18 03:28:03;;;;;;;3.88;1.30;;;17.00;57.90;;;;;;5028635;28;20032;-58
2022/03/18 03:30:28;;;;;;;2.15;1.30;;;16.90;57.80;;;;;;5026635;28;20037;-58
2022/03/18 03:32:54;;;;;;;2.30;1.30;;;17.00;57.80;;;;;;5029948;28;20414;-59
2022/03/18 03:35:20;;;;;;;2.20;1.15;;;16.90;57.80;;;;;;5026186;28;20025;-58
2022/03/18 03:37:45;;;;;;;2.20;1.20;;;16.90;57.70;;;;;;5031849;28;20030;-58
2022/03/18 03:40:15;;;;;;;2.35;1.30;;;16.90;57.80;;;;;;5036575;28;20033;-58
2022/03/18 03:42:41;;;;;;;2.78;1.35;;;16.90;57.80;;;;;;5034168;28;20359;-58
2022/03/18 03:45:09;;;;;;;3.70;1.45;;;16.90;57.80;;;;;;5059478;28;20044;-59
2022/03/18 03:47:35;;;;;;;2.60;1.30;;;16.90;57.70;;;;;;5029923;28;20115;-59
2022/03/18 03:50:00;;;;;;;3.65;1.30;;;16.90;57.80;;;;;;5031215;28;20024;-58
2022/03/18 03:52:26;;;;;;;3.13;1.23;;;16.90;57.80;;;;;;5037033;28;20037;-58
2022/03/18 03:54:52;;;;;;;2.10;1.00;;;16.80;57.70;;;;;;5027825;28;20026;-59
2022/03/18 03:57:17;;;;;;;2.72;1.25;;;16.80;57.70;;;;;;5037411;28;20095;-59
2022/03/18 03:59:43;;;;;;;2.83;1.30;;;16.80;57.70;;;;;;5030503;28;20543;-59
2022/03/18 04:02:11;;;;;;;2.92;1.25;;;16.80;57.70;;;;;;5030327;28;20490;-58
2022/03/18 04:04:37;;;;;;;3.65;1.40;;;16.80;57.70;;;;;;5032376;28;20085;-59
2022/03/18 04:07:02;;;;;;;3.55;1.40;;;16.80;57.70;;;;;;5029734;28;20543;-58
2022/03/18 04:09:28;;;;;;;3.47;1.27;;;16.80;57.60;;;;;;5034102;28;20669;-59
2022/03/18 04:11:54;;;;;;;2.75;1.23;;;16.80;57.70;;;;;;5027728;28;20037;-58
2022/03/18 04:14:20;;;;;;;2.28;1.13;;;16.80;57.70;;;;;;5027410;28;20505;-58
2022/03/18 04:16:46;;;;;;;2.95;1.23;;;16.80;57.70;;;;;;5033409;28;20112;-58
2022/03/18 04:19:11;;;;;;;1.67;1.00;;;16.80;57.60;;;;;;5036357;28;20116;-59
2022/03/18 04:21:37;;;;;;;3.65;1.30;;;16.70;57.60;;;;;;5029098;28;20036;-59
2022/03/18 04:24:03;;;;;;;2.45;1.20;;;16.70;57.70;;;;;;5029928;28;20100;-58
2022/03/18 04:26:29;;;;;;;3.22;1.30;;;16.70;57.60;;;;;;5028188;28;20535;-59
2022/03/18 04:28:54;;;;;;;4.28;1.48;;;16.70;57.60;;;;;;5033039;28;20025;-59
2022/03/18 04:31:20;;;;;;;2.92;1.20;;;16.70;57.60;;;;;;5039614;28;20092;-58
2022/03/18 04:33:46;;;;;;;3.85;1.23;;;16.70;57.60;;;;;;5037881;28;20031;-58
2022/03/18 04:36:12;;;;;;;2.25;1.17;;;16.70;57.60;;;;;;5035337;28;20098;-59
2022/03/18 04:38:38;;;;;;;3.40;1.33;;;16.70;57.60;;;;;;5031738;28;20501;-58
2022/03/18 04:41:04;;;;;;;2.15;1.08;;;16.70;57.60;;;;;;5028658;28;20053;-58
2022/03/18 04:43:29;;;;;;;2.33;1.23;;;16.70;57.70;;;;;;5035969;28;20078;-59
2022/03/18 04:45:55;;;;;;;2.53;1.30;;;16.70;57.60;;;;;;5034769;28;20427;-58
2022/03/18 04:48:21;;;;;;;2.67;1.20;;;16.60;57.60;;;;;;5033437;28;20021;-59
2022/03/18 04:50:46;;;;;;;2.95;1.02;;;16.60;57.60;;;;;;5030772;28;20060;-59
2022/03/18 04:53:12;;;;;;;2.28;1.15;;;16.60;57.60;;;;;;5030279;28;20041;-58
2022/03/18 04:55:38;;;;;;;2.15;1.20;;;16.60;57.60;;;;;;5035305;28;20017;-58
2022/03/18 04:58:03;;;;;;;3.42;1.20;;;16.60;57.60;;;;;;5032981;28;20037;-58
2022/03/18 05:00:29;;;;;;;1.85;1.02;;;16.60;57.60;;;;;;5035512;28;20053;-58
2022/03/18 05:02:57;;;;;;;4.03;1.20;;;16.60;57.60;;;;;;5029566;28;20026;-58
2022/03/18 05:05:23;;;;;;;3.72;1.30;;;16.60;57.70;;;;;;5031169;28;20406;-58
2022/03/18 05:07:50;;;;;;;2.83;1.20;;;16.60;57.70;;;;;;5028934;28;20022;-58
2022/03/18 05:10:16;;;;;;;3.75;1.15;;;16.60;57.70;;;;;;5028643;28;20033;-59
2022/03/18 05:12:41;;;;;;;2.00;1.10;;;16.60;57.70;;;;;;5038403;28;20060;-58
2022/03/18 05:15:11;;;;;;;3.45;1.27;;;16.60;57.70;;;;;;5037016;28;20486;-59
2022/03/18 05:17:38;;;;;;;3.25;1.13;;;16.50;57.60;;;;;;5029518;28;20025;-59
2022/03/18 05:20:09;;;;;;;2.88;1.10;;;16.50;57.60;;;;;;5024432;28;20077;-58
2022/03/18 05:22:35;;;;;;;1.73;0.98;;;16.50;57.60;;;;;;5034669;28;20018;-58
2022/03/18 05:25:01;;;;;;;1.77;0.82;;;16.50;57.60;;;;;;5030963;28;20402;-58
2022/03/18 05:27:26;;;;;;;2.85;1.30;;;16.50;57.70;;;;;;5033604;28;20098;-59
2022/03/18 05:29:52;;;;;;;3.03;1.10;;;16.50;57.60;;;;;;5035993;28;20379;-58
2022/03/18 05:32:18;;;;;;;2.85;1.10;;;16.50;57.60;;;;;;5027886;28;20048;-59
2022/03/18 05:34:44;;;;;;;2.72;1.23;;;16.50;57.60;;;;;;5029269;28;20033;-58
2022/03/18 05:37:10;;;;;;;1.88;1.10;;;16.50;57.60;;;;;;5027825;28;20026;-59
2022/03/18 05:39:36;;;;;;;2.50;1.02;;;16.50;57.80;;;;;;5067996;28;20547;-59
2022/03/18 05:42:04;;;;;;;3.90;1.00;;;16.40;57.70;;;;;;5027547;28;20050;-58
2022/03/18 05:44:29;;;;;;;2.85;1.20;;;16.50;57.70;;;;;;5033849;28;20111;-58
2022/03/18 05:46:56;;;;;;;2.90;1.15;;;16.40;57.60;;;;;;5032780;28;20085;-59
2022/03/18 05:49:21;;;;;;;2.42;1.20;;;16.40;57.60;;;;;;5036121;28;20029;-58
2022/03/18 05:51:47;;;;;;;3.85;1.20;;;16.40;57.70;;;;;;5026891;28;20044;-58
2022/03/18 05:54:13;;;;;;;4.80;1.52;;;16.40;57.70;;;;;;5024992;28;20062;-58
2022/03/18 05:56:53;;;;;;;2.03;1.00;;;16.40;57.70;;;;;;5029586;28;20037;-58
2022/03/18 05:59:23;;;;;;;2.55;0.80;;;16.40;57.80;;;;;;5021802;28;20480;-58
2022/03/18 06:01:49;;;;;;;2.83;1.08;;;16.40;58.30;;;;;;5057235;28;20037;-58
2022/03/18 06:04:15;;;;;;;4.47;1.10;;;16.40;58.30;;;;;;5023281;28;20033;-58
2022/03/18 06:06:42;;;;;;;2.90;1.10;;;16.40;58.50;;;;;;5021492;28;20045;-58
2022/03/18 06:11:51;;;;;;;4.35;1.10;;;16.40;58.10;;;;;;5014614;28;20094;-58
2022/03/18 06:14:18;;;;;;;2.85;1.10;;;16.40;58.30;;;;;;5022189;28;20037;-58
2022/03/18 06:16:49;;;;;;;6.15;1.40;;;16.40;58.30;;;;;;5031181;28;20087;-58
2022/03/18 06:19:18;;;;;;;6.05;1.50;;;16.40;60.30;;;;;;5027380;28;20060;-58
2022/03/18 06:21:44;;;;;;;6.53;1.30;;;16.40;60.10;;;;;;5033769;28;20033;-58
2022/03/18 06:24:11;;;;;;;7.28;1.50;;;16.40;60.10;;;;;;5027663;28;20087;-58
2022/03/18 06:26:37;;;;;;;6.80;1.50;;;16.40;60.20;;;;;;5025941;28;20029;-58
2022/03/18 06:29:04;;;;;;;3.90;1.20;;;16.40;60.30;;;;;;5023113;28;20648;-58
2022/03/18 06:31:30;;;;;;;5.35;1.38;;;16.40;60.60;;;;;;5025525;28;20033;-58
2022/03/18 06:33:56;;;;;;;5.13;1.40;;;16.50;60.60;;;;;;5030045;28;20063;-58
2022/03/18 06:36:22;;;;;;;6.43;1.40;;;16.40;60.40;;;;;;5027770;28;20030;-58
2022/03/18 06:38:48;;;;;;;5.95;1.70;;;16.50;60.80;;;;;;5028859;28;20033;-58
2022/03/18 06:41:15;;;;;;;4.10;1.23;;;16.50;60.50;;;;;;5026781;28;20042;-58
2022/03/18 06:43:40;;;;;;;6.13;1.20;;;16.40;60.40;;;;;;5028635;28;20032;-58
2022/03/18 06:46:06;;;;;;;8.88;1.40;;;16.40;60.50;;;;;;5064880;28;20021;-58
2022/03/18 06:48:32;;;;;;;6.00;1.45;;;16.40;60.70;;;;;;5029708;28;20036;-58
2022/03/18 06:50:59;;;;;;;4.25;1.50;;;16.40;60.90;;;;;;5019879;28;20061;-58
2022/03/18 06:53:25;;;;;;;4.50;1.55;;;16.40;60.80;;;;;;5027763;28;20460;-58
2022/03/18 06:55:51;;;;;;;8.10;1.40;;;16.40;61.00;;;;;;5021577;28;20023;-58
2022/03/18 06:58:17;;;;;;;7.55;1.35;;;16.40;61.20;;;;;;5025089;28;20421;-58
2022/03/18 07:00:43;;;;;;;4.28;1.40;;;16.40;61.10;;;;;;5052190;28;20092;-58
2022/03/18 07:03:10;;;;;;;5.60;1.48;;;16.40;61.20;;;;;;5022534;28;20124;-58
2022/03/18 07:05:36;;;;;;;9.07;1.60;;;16.50;60.90;;;;;;5017399;28;20032;-59
2022/03/18 07:08:01;;;;;;;7.20;1.80;;;16.40;61.50;;;;;;5022366;28;20049;-58
2022/03/18 07:10:27;;;;;;;13.68;1.80;;;16.40;62.70;;;;;;5019178;28;20633;-58
2022/03/18 07:12:53;;;;;;;7.13;1.65;;;16.40;63.10;;;;;;5027040;28;20417;-58
2022/03/18 07:15:18;;;;;;;9.82;1.98;;;16.40;63.40;;;;;;5023788;28;20029;-58
2022/03/18 07:17:55;;;;;;;9.30;1.70;;;16.40;63.50;;;;;;5019836;28;20472;-58
2022/03/18 07:20:28;;;;;;;8.48;1.95;;;16.40;63.50;;;;;;5017021;28;20029;-58
2022/03/18 07:23:03;;;;;;;6.22;1.60;;;16.40;63.50;;;;;;5021166;28;20617;-58
2022/03/18 07:25:29;;;;;;;6.68;1.50;;;16.40;63.10;;;;;;5024558;28;20029;-58
2022/03/18 07:27:55;;;;;;;10.07;1.60;;;16.50;63.40;;;;;;5025161;28;20037;-58
2022/03/18 07:30:20;;;;;;;8.88;1.73;;;16.40;63.20;;;;;;5023415;28;20029;-58
2022/03/18 07:32:46;;;;;;;5.65;1.52;;;16.50;63.20;;;;;;5032497;28;20064;-58
2022/03/18 07:35:14;;;;;;;8.20;1.35;;;16.50;63.20;;;;;;5018649;28;20061;-58
2022/03/18 07:37:40;;;;;;;6.15;1.50;;;16.50;63.20;;;;;;5022275;28;20041;-59
2022/03/18 07:40:07;;;;;;;6.78;1.67;;;16.50;63.00;;;;;;5023946;28;20026;-58
2022/03/18 07:42:59;;;;;;;9.32;1.92;;;16.50;63.00;;;;;;5030421;28;20143;-58
2022/03/18 07:45:29;;;;;;;10.32;1.70;;;16.50;62.90;;;;;;5030553;28;20059;-58
2022/03/18 07:47:56;;;;;;;7.20;1.25;;;16.50;63.00;;;;;;5020037;28;20042;-58
2022/03/18 07:50:23;;;;;;;6.72;1.70;;;16.50;62.70;;;;;;5026911;28;20026;-58
2022/03/18 07:52:56;;;;;;;7.28;1.73;;;16.60;62.80;;;;;;5023471;28;20030;-58
2022/03/18 07:55:27;;;;;;;7.47;1.40;;;16.60;62.80;;;;;;5025146;28;20505;-58
2022/03/18 07:58:00;;;;;;;32.22;15.68;;;16.60;63.80;;;;;;5026364;28;20390;-59
2022/03/18 08:00:26;;;;;;;11.75;4.10;;;16.60;62.90;;;;;;5033134;28;20107;-58
2022/03/18 08:02:55;;;;;;;11.75;4.30;;;16.50;62.60;;;;;;5033303;28;20100;-58
2022/03/18 08:05:21;;;;;;;13.77;4.40;;;16.60;62.80;;;;;;5027686;28;20098;-58
2022/03/18 08:07:47;;;;;;;11.70;4.20;;;16.60;62.50;;;;;;5030569;28;20022;-58
2022/03/18 08:10:13;;;;;;;10.02;4.35;;;16.60;62.40;;;;;;5026655;28;20568;-59
2022/03/18 08:12:40;;;;;;;9.18;4.30;;;16.60;62.20;;;;;;5028312;28;20045;-58
2022/03/18 08:15:15;;;;;;;14.50;4.30;;;16.60;62.20;;;;;;5023432;28;20498;-59
2022/03/18 08:17:41;;;;;;;10.77;4.00;;;16.60;62.20;;;;;;5025392;28;20030;-59
2022/03/18 08:20:08;;;;;;;10.52;3.88;;;16.70;62.10;;;;;;5032961;28;20029;-58
2022/03/18 08:22:35;;;;;;;13.02;4.10;;;16.70;62.10;;;;;;5027500;28;20039;-58
2022/03/18 08:25:01;;;;;;;9.52;3.72;;;16.70;62.00;;;;;;5028154;28;20080;-59
2022/03/18 08:27:26;;;;;;;9.82;3.67;;;16.80;61.80;;;;;;5037113;28;20609;-58
2022/03/18 08:29:57;;;;;;;7.85;3.50;;;16.80;61.60;;;;;;5030001;28;20104;-58
2022/03/18 08:32:23;;;;;;;14.82;3.50;;;16.90;61.30;;;;;;5028659;28;20051;-58
2022/03/18 08:34:48;;;;;;;11.32;3.72;;;16.90;61.20;;;;;;5025538;28;20029;-58
2022/03/18 08:37:14;;;;;;;9.82;3.25;;;16.90;60.90;;;;;;5026544;28;20040;-58
2022/03/18 08:39:41;;;;;;;8.80;3.28;;;16.90;60.90;;;;;;5028744;28;20032;-58
2022/03/18 08:42:07;;;;;;;11.43;3.50;;;17.00;60.70;;;;;;5030952;28;20096;-58
2022/03/18 08:44:33;;;;;;;10.52;3.50;;;17.00;60.50;;;;;;5028348;28;20104;-58
2022/03/18 08:46:59;;;;;;;7.47;3.22;;;17.10;60.50;;;;;;5033524;28;20048;-59
2022/03/18 08:49:25;;;;;;;10.38;3.55;;;17.10;60.20;;;;;;5032762;28;20502;-59
2022/03/18 08:51:50;;;;;;;8.88;3.13;;;17.20;60.20;;;;;;5028549;28;20510;-58
2022/03/18 08:54:16;;;;;;;9.43;3.20;;;17.20;59.90;;;;;;5029266;28;20431;-58
2022/03/18 08:56:42;;;;;;;8.50;3.15;;;17.30;60.00;;;;;;5031269;28;20060;-58
2022/03/18 08:59:07;;;;;;;14.98;3.17;;;17.30;59.90;;;;;;5029631;28;20032;-59
2022/03/18 09:01:34;;;;;;;8.02;2.85;;;17.40;59.70;;;;;;5025000;28;20056;-59
2022/03/18 09:04:00;;;;;;;8.85;3.08;;;17.40;59.70;;;;;;5033521;28;20060;-58
2022/03/18 09:06:25;;;;;;;7.43;2.90;;;17.40;59.60;;;;;;5036272;28;20498;-58
2022/03/18 09:08:51;;;;;;;6.97;2.90;;;17.50;59.40;;;;;;5028990;28;20025;-58
2022/03/18 09:11:16;;;;;;;7.55;3.00;;;17.60;59.50;;;;;;5026613;28;20044;-58
2022/03/18 09:13:42;;;;;;;8.95;2.83;;;17.60;59.20;;;;;;5026849;28;20032;-58
2022/03/18 09:16:08;;;;;;;11.20;2.88;;;17.70;59.10;;;;;;5030611;28;20033;-58
2022/03/18 09:18:33;;;;;;;8.85;2.70;;;17.70;59.00;;;;;;5036682;28;20067;-58
2022/03/18 09:20:59;;;;;;;9.40;2.70;;;17.80;59.00;;;;;;5024375;28;20482;-58
2022/03/18 09:23:26;;;;;;;8.45;2.67;;;17.80;58.90;;;;;;5025601;28;20021;-58
2022/03/18 09:25:51;;;;;;;6.35;2.42;;;17.90;58.90;;;;;;5029704;28;20124;-58
2022/03/18 09:28:17;;;;;;;8.32;2.40;;;17.90;58.80;;;;;;5028302;28;20108;-59
2022/03/18 09:30:43;;;;;;;11.50;2.60;;;18.00;58.70;;;;;;5031426;28;20415;-56
2022/03/18 09:33:09;;;;;;;8.15;2.60;;;18.10;58.40;;;;;;5025144;28;20106;-56
2022/03/18 09:35:43;;;;;;;8.43;2.67;;;18.20;58.50;;;;;;5026475;28;20029;-56
2022/03/18 09:38:09;;;;;;;6.97;2.57;;;18.20;58.30;;;;;;5031968;28;20039;-56
2022/03/18 09:40:34;;;;;;;9.30;2.60;;;18.20;58.30;;;;;;5029542;28;20029;-56
2022/03/18 09:43:04;;;;;;;8.45;2.65;;;18.30;58.10;;;;;;5028268;28;20021;-56
2022/03/18 09:45:31;;;;;;;10.48;2.25;;;18.40;58.10;;;;;;5031655;28;20076;-56
2022/03/18 09:48:01;;;;;;;7.22;2.50;;;18.40;58.00;;;;;;5029297;28;20034;-56
2022/03/18 09:50:30;;;;;;;8.68;2.50;;;18.50;58.00;;;;;;5033493;28;20548;-56
2022/03/18 09:52:56;;;;;;;7.70;2.35;;;18.50;57.80;;;;;;5026674;28;20099;-56
2022/03/18 09:55:22;;;;;;;6.53;2.20;;;18.60;57.70;;;;;;5022103;28;20041;-56
2022/03/18 09:57:47;;;;;;;8.60;2.00;;;18.60;57.60;;;;;;5028682;28;20024;-56
2022/03/18 10:00:13;;;;;;;6.07;2.10;;;18.70;57.50;;;;;;5027796;28;20079;-56
2022/03/18 10:02:39;;;;;;;5.88;2.22;;;18.80;57.50;;;;;;5026080;28;20521;-56
2022/03/18 10:05:10;;;;;;;6.13;2.35;;;18.80;57.30;;;;;;5023345;28;20123;-56
2022/03/18 10:07:36;;;;;;;6.93;2.38;;;18.80;57.20;;;;;;5021899;28;20053;-56
2022/03/18 10:10:16;;;;;;;7.75;2.33;;;18.80;57.10;;;;;;5032798;28;20088;-56
2022/03/18 10:12:47;;;;;;;8.52;2.50;;;18.90;56.60;;;;;;5024087;28;20034;-56
2022/03/18 10:15:18;;;;;;;7.28;1.98;;;18.90;56.50;;;;;;5028775;28;20467;-56
2022/03/18 10:17:48;;;;;;;6.13;2.13;;;19.00;56.30;;;;;;5034209;28;20104;-56
2022/03/18 10:20:32;;;;;;;6.10;2.03;;;19.10;56.20;;;;;;5025596;28;20375;-57
2022/03/18 10:23:16;;;;;;;6.30;2.00;;;19.20;56.00;;;;;;5028316;28;20025;-56
2022/03/18 10:25:47;;;;;;;10.90;2.60;;;19.20;56.00;;;;;;5025250;28;20036;-56
2022/03/18 10:28:13;;;;;;;10.60;2.30;;;19.30;55.90;;;;;;5025651;28;20105;-56
2022/03/18 10:30:39;;;;;;;6.80;2.40;;;19.40;55.90;;;;;;5022562;28;20116;-56
2022/03/18 10:33:06;;;;;;;6.45;2.38;;;19.50;55.80;;;;;;5029940;28;20045;-56
2022/03/18 10:38:35;;;;;;;7.65;2.65;;;19.60;55.50;;;;;;5021230;28;20585;-56
2022/03/18 10:41:08;;;;;;;8.20;2.40;;;19.70;55.40;;;;;;5024222;28;20049;-56
2022/03/18 10:43:53;;;;;;;10.80;2.85;;;19.70;55.20;;;;;;5032757;28;20112;-56
2022/03/18 10:46:19;;;;;;;8.82;2.20;;;19.80;55.10;;;;;;5024207;28;20033;-56
2022/03/18 10:49:04;;;;;;;7.65;2.35;;;19.80;55.00;;;;;;5022187;28;20157;-56
2022/03/18 10:51:30;;;;;;;9.05;2.60;;;19.90;54.80;;;;;;5024601;28;20037;-56
2022/03/18 10:53:56;;;;;;;9.50;2.33;;;20.00;54.70;;;;;;5022618;28;20025;-56
2022/03/18 10:56:22;;;;;;;5.93;2.20;;;20.00;54.50;;;;;;5021731;28;20040;-56
2022/03/18 10:58:47;;;;;;;7.80;2.28;;;20.00;55.60;;;;;;5025163;28;20036;-56
2022/03/18 11:01:13;;;;;;;6.72;2.05;;;20.10;54.50;;;;;;5021152;28;20063;-56
2022/03/18 11:03:39;;;;;;;8.27;2.22;;;20.20;54.40;;;;;;5017593;28;20041;-56
2022/03/18 11:06:04;;;;;;;7.78;2.22;;;20.20;54.00;;;;;;5020889;28;20081;-56
2022/03/18 11:08:49;;;;;;;6.22;2.10;;;20.30;53.90;;;;;;5023204;28;20033;-56
2022/03/18 11:11:15;;;;;;;5.60;2.10;;;20.30;53.90;;;;;;5023876;28;20037;-56
2022/03/18 11:14:06;;;;;;;5.82;2.00;;;20.40;53.80;;;;;;5025391;28;20025;-56
2022/03/18 11:16:35;;;;;;;8.48;2.45;;;20.40;53.60;;;;;;5018254;28;20039;-56
2022/03/18 11:19:04;;;;;;;10.10;1.85;;;20.50;53.50;;;;;;5020021;28;20079;-56
2022/03/18 11:21:38;;;;;;;9.38;2.08;;;20.50;53.50;;;;;;5020858;28;20052;-56
2022/03/18 11:24:18;;;;;;;10.32;2.38;;;20.60;53.30;;;;;;5015775;28;20087;-57
2022/03/18 11:26:54;;;;;;;8.63;2.47;;;20.70;53.10;;;;;;5019011;28;20041;-56
2022/03/18 11:29:26;;;;;;;9.93;2.63;;;20.70;52.90;;;;;;5037669;28;20030;-56
2022/03/18 11:32:12;;;;;;;7.25;2.13;;;20.80;53.00;;;;;;4998049;28;20041;-56
2022/03/18 11:34:58;;;;;;;7.82;2.50;;;20.80;52.50;;;;;;5019734;28;20033;-56
2022/03/18 11:37:25;;;;;;;10.63;3.05;;;20.80;52.20;;;;;;5024846;28;20068;-56
2022/03/18 11:40:30;;;;;;;9.60;3.35;;;20.80;51.40;;;;;;5025861;28;20093;-56
2022/03/18 11:42:55;;;;;;;7.88;2.63;;;20.70;49.50;;;;;;5022976;28;20422;-56
2022/03/18 11:45:32;;;;;;;11.07;2.78;;;20.70;49.70;;;;;;5023349;28;20683;-56
2022/03/18 11:48:38;;;;;;;8.80;2.50;;;20.70;47.70;;;;;;5020851;28;20030;-56
2022/03/18 11:51:33;;;;;;;10.45;2.90;;;20.70;47.70;;;;;;5029435;28;20060;-56
2022/03/18 11:54:07;;;;;;;9.82;2.38;;;20.70;47.20;;;;;;5035814;28;20434;-56
2022/03/18 11:56:39;;;;;;;10.38;2.50;;;20.70;46.80;;;;;;5023350;28;20041;-56
2022/03/18 11:59:25;;;;;;;9.95;2.10;;;20.70;46.30;;;;;;5028628;28;20477;-56
2022/03/18 12:02:03;;;;;;;9.55;2.65;;;20.70;45.90;;;;;;5025700;28;20120;-56
2022/03/18 12:04:38;;;;;;;7.80;2.00;;;20.70;45.50;;;;;;5026448;28;20107;-56
2022/03/18 12:07:23;;;;;;;8.35;2.40;;;20.70;45.80;;;;;;5019116;28;20029;-56
2022/03/18 12:09:49;;;;;;;;;;;20.70;44.60;;;;;;5026002;28;20037;-56
2022/03/18 12:12:16;;;;;;;7.32;2.30;;;20.70;45.20;;;;;;5023773;28;20400;-57
2022/03/18 12:14:41;;;;;;;8.57;2.17;;;20.70;45.50;;;;;;5025157;28;20021;-56
2022/03/18 12:17:07;;;;;;;7.80;2.28;;;20.70;46.10;;;;;;5019522;28;20036;-56
2022/03/18 12:19:36;;;;;;;6.82;1.90;;;20.70;45.10;;;;;;5024710;28;20026;-56
2022/03/18 12:22:03;;;;;;;8.20;2.28;;;20.70;44.20;;;;;;5023167;28;20038;-56
2022/03/18 12:24:29;;;;;;;6.85;2.45;;;20.70;44.00;;;;;;5066220;28;20033;-56
2022/03/18 12:26:55;;;;;;;9.43;2.40;;;20.70;44.10;;;;;;5023629;28;20029;-57
2022/03/18 12:29:27;;;;;;;8.57;2.45;;;20.70;44.50;;;;;;5025218;28;20503;-56
2022/03/18 12:32:09;;;;;;;10.43;2.35;;;20.70;43.80;;;;;;5022909;28;20124;-56
2022/03/18 12:34:36;;;;;;;12.48;2.72;;;20.70;43.20;;;;;;5030067;28;20406;-56
2022/03/18 12:37:03;;;;;;;6.78;2.30;;;20.70;43.50;;;;;;5027346;28;20033;-56
2022/03/18 12:39:29;;;;;;;6.32;2.17;;;20.70;43.70;;;;;;5030188;28;20029;-56
2022/03/18 12:42:12;;;;;;;9.43;2.28;;;20.80;43.90;;;;;;5026418;28;20056;-56
2022/03/18 12:44:38;;;;;;;6.43;2.20;;;20.80;43.60;;;;;;5017977;28;20029;-56
2022/03/18 12:47:07;;;;;;;7.43;2.15;;;20.80;44.20;;;;;;5030607;28;20033;-56
2022/03/18 12:49:35;;;;;;;8.05;2.13;;;20.90;44.00;;;;;;5023609;28;20041;-56
2022/03/18 12:52:01;;;;;;;6.35;2.40;;;20.90;43.80;;;;;;5031747;28;20045;-56
2022/03/18 12:54:28;;;;;;;7.10;2.13;;;20.90;44.00;;;;;;5025989;28;20021;-57
2022/03/18 12:56:53;;;;;;;5.80;2.10;;;20.90;44.90;;;;;;5026557;28;20526;-56
2022/03/18 12:59:20;;;;;;;6.97;2.20;;;20.90;45.20;;;;;;5025651;28;20047;-56
2022/03/18 13:01:53;;;;;;;6.43;2.08;;;20.90;44.20;;;;;;5033146;28;20041;-56
2022/03/18 13:04:20;;;;;;;6.32;2.03;;;21.10;44.30;;;;;;5027907;28;20060;-56